Аэропорт: Усть-Каменогорск. Усть-Каменогорск

ICAO: UASK

METAR:
2019/01/21 23:00
UASK 212300Z 20004MPS 170V230 9999 OVC030CB M02/M03 Q1028 R12/590540 NOSIG RMK QFE745/0994
METAR:
Информация по данной станции не доступна